Pearson, WI (54462)

2:38 PM CDT on September 22, 2014 (GMT -0500)
Lake Lucerne | Change Station
CLOSE
Current Station
Personal Weather Station
Location: Crandon, WI
Elevation: 1644 ft
Nearby Weather Stations

Elev 1644 ft 45.52 °N, 88.85 °W | Updated 14 seconds ago

Partly Cloudy
Partly Cloudy
63.2 °F
Feels Like 63.2 °F
N
2.3
Wind Variable Wind from West
Gusts 2.3 mph

Today
High -- | Low -- °F
--% Chance of Precip.
Yesterday
High -- | Low -- °F
Precip. -- in
6:43 AM 6:53 PM
Waning Crescent, 2% visible
Pressure 30.19 in
Visibility 10.0 miles
Clouds Mostly Cloudy 3700 ft
Dew Point 49 °F
Humidity 60%
Rainfall 0.00 in
Snow Depth Not available.
UV 3 out of 12
Pollen 3.20 out of 12
Air Quality Not available.
Flu Activity Not available.
METAR KAIG 221915Z AUTO 25011KT 10SM BKN037 18/09 A3019 RMK AO2 T01750091

More Conditions Fewer Conditions

Pressure 30.19 in
Visibility 10.0 miles
Clouds Mostly Cloudy 3700 ft
Dew Point 49 °F
Humidity 60%
Rainfall 0.00 in
Snow Depth Not available.
UV 3 out of 12
Pollen 3.20 out of 12
Air Quality Not available.
Flu Activity Not available.
METAR KAIG 221915Z AUTO 25011KT 10SM BKN037 18/09 A3019 RMK AO2 T01750091

More Conditions Fewer Conditions

10-Day Weather Forecast

Almanac

Astronomy

Sep. 22, 2014 Rise Set
Actual Time 6:43 AM CDT 6:53 PM CDT
Civil Twilight 6:13 AM CDT 7:23 PM CDT
Nautical Twilight 5:39 AM CDT 7:57 PM CDT
Astronomical Twilight 5:03 AM CDT 8:33 PM CDT
Moon 5:08 AM CDT 6:03 PM CDT
Length of Visible Light 13h 09m
Length of Day
12h 10m
Tomorrow will be 3m 9s shorter.
Waning Crescent, 2% of the Moon is Illuminated
Today
Waning Crescent
Sep 24
New
Oct 1
First Quarter
Oct 8
Full
Oct 15
Last Quarter

Today's Extremes

State Highs State Lows

Community

WunderPhotos

Upload Photos

1,755,514 photos uploaded!

WunderBlogs® & News

Nearby

Snow Depth

Station Depth Elevation
No new snow has been reported.

Earthquake Activity

City Distance Mag. Time & Date
No recent earthquake activity has been reported nearby.
Minimum magnitude displayed is 2.5.

Coastal Water Temperatures

Place Temperature
No Stations Reporting

Nearby Weather Stations